Wilder, VT (05088)

7:12 AM EDT on August 27, 2016 (GMT -0400)
Wilder Village | | Change Station

Elev 451 ft 43.68 °N, 72.31 °W | Updated 1 minute ago

Fog
Fog
59.8 °F
Feels Like 59.8 °F
N
0.0
Wind Variable Wind from NW
Gusts 0.0 mph

Today
High -- | Low -- °F
--% Chance of Precip.
Yesterday
High -- | Low -- °F
Precip. -- in
Pressure 30.17 in
Visibility 0.2 miles
Clouds
Dew Point 59 °F
Humidity 98%
Rainfall 0.00 in
Snow Depth Not available.
6:07 AM 7:32 PM
Waning Crescent, 25% visible
METAR KLEB 271053Z 35003KT 1/4SM FG VV001 16/15 A3019 RMK AO2 SLP214 T01610150
Pressure 30.17 in
Visibility 0.2 miles
Clouds
Dew Point 59 °F
Humidity 98%
Rainfall 0.00 in
Snow Depth Not available.
6:07 AM 7:32 PM
Waning Crescent, 25% visible
METAR KLEB 271053Z 35003KT 1/4SM FG VV001 16/15 A3019 RMK AO2 SLP214 T01610150

10-Day Weather Forecast

Almanac

Astronomy

Aug. 27, 2016 Rise Set
Actual Time
Civil Twilight
Nautical Twilight
Astronomical Twilight
Moon
Length of Visible Light
Length of Day
Tomorrow will be .
, % of the Moon is Illuminated

Today's Extremes

State Highs State Lows

Community

WunderPhotos

Upload Photos

1,935,322 photos uploaded!

WunderBlog® & News

Nearby

Air Quality

  Air Quality AQ Index Pollutant
Not available.

Snow Depth

Station Depth Elevation

Earthquake Activity

City Distance Mag. Time & Date
Minimum magnitude displayed is 2.5.

Coastal Water Temperatures

Place Temperature

Stations

Nearby Weather Stations

Station Location Temp. Windchill Dew Point Humidity Wind Precip. Elev Updated Type
                   

Watches & Warnings

There are currently no watches in effect.